sensor_id;sensor_type;location;lat;lon;timestamp;temperature;humidity
5128;DHT22;2582;48.770;9.190;2023-10-09T00:02:08;15.70;99.90
5128;DHT22;2582;48.770;9.190;2023-10-09T00:04:35;15.80;99.90
5128;DHT22;2582;48.770;9.190;2023-10-09T00:07:03;15.80;99.90
5128;DHT22;2582;48.770;9.190;2023-10-09T00:09:34;15.80;99.90
5128;DHT22;2582;48.770;9.190;2023-10-09T00:12:20;15.80;99.90
5128;DHT22;2582;48.770;9.190;2023-10-09T00:14:49;15.80;99.90
5128;DHT22;2582;48.770;9.190;2023-10-09T00:17:19;15.80;99.90
5128;DHT22;2582;48.770;9.190;2023-10-09T00:19:45;15.80;99.90
5128;DHT22;2582;48.770;9.190;2023-10-09T00:22:13;15.80;99.90
5128;DHT22;2582;48.770;9.190;2023-10-09T00:24:53;15.70;99.90
5128;DHT22;2582;48.770;9.190;2023-10-09T00:27:41;15.70;99.90
5128;DHT22;2582;48.770;9.190;2023-10-09T00:30:14;15.60;99.90
5128;DHT22;2582;48.770;9.190;2023-10-09T00:32:55;15.60;99.90
5128;DHT22;2582;48.770;9.190;2023-10-09T00:35:23;15.60;99.90
5128;DHT22;2582;48.770;9.190;2023-10-09T00:38:19;15.70;99.90
5128;DHT22;2582;48.770;9.190;2023-10-09T00:40:45;15.60;99.90
5128;DHT22;2582;48.770;9.190;2023-10-09T00:43:16;15.60;99.90
5128;DHT22;2582;48.770;9.190;2023-10-09T00:45:46;15.60;99.90
5128;DHT22;2582;48.770;9.190;2023-10-09T00:48:13;15.70;99.90
5128;DHT22;2582;48.770;9.190;2023-10-09T00:50:47;15.60;99.90
5128;DHT22;2582;48.770;9.190;2023-10-09T00:53:17;15.60;99.90
5128;DHT22;2582;48.770;9.190;2023-10-09T00:55:44;15.60;99.90
5128;DHT22;2582;48.770;9.190;2023-10-09T00:58:15;15.50;99.90
5128;DHT22;2582;48.770;9.190;2023-10-09T01:00:49;15.50;99.90
5128;DHT22;2582;48.770;9.190;2023-10-09T01:03:18;15.50;99.90
5128;DHT22;2582;48.770;9.190;2023-10-09T01:05:45;15.60;99.90
5128;DHT22;2582;48.770;9.190;2023-10-09T01:08:21;15.60;99.90
5128;DHT22;2582;48.770;9.190;2023-10-09T01:11:00;15.60;99.90
5128;DHT22;2582;48.770;9.190;2023-10-09T01:16:07;15.50;99.90
5128;DHT22;2582;48.770;9.190;2023-10-09T01:18:40;15.50;99.90
5128;DHT22;2582;48.770;9.190;2023-10-09T01:21:06;15.50;99.90
5128;DHT22;2582;48.770;9.190;2023-10-09T01:23:32;15.50;99.90
5128;DHT22;2582;48.770;9.190;2023-10-09T01:25:57;15.60;99.90
5128;DHT22;2582;48.770;9.190;2023-10-09T01:28:23;15.60;99.90
5128;DHT22;2582;48.770;9.190;2023-10-09T01:30:50;15.60;99.90
5128;DHT22;2582;48.770;9.190;2023-10-09T01:33:17;15.60;99.90
5128;DHT22;2582;48.770;9.190;2023-10-09T01:35:53;15.60;99.90
5128;DHT22;2582;48.770;9.190;2023-10-09T01:38:25;15.70;99.90
5128;DHT22;2582;48.770;9.190;2023-10-09T01:41:12;15.80;99.90
5128;DHT22;2582;48.770;9.190;2023-10-09T01:43:44;15.80;99.90
5128;DHT22;2582;48.770;9.190;2023-10-09T01:46:13;15.90;99.90
5128;DHT22;2582;48.770;9.190;2023-10-09T01:48:42;15.90;99.90
5128;DHT22;2582;48.770;9.190;2023-10-09T01:51:15;15.90;99.90
5128;DHT22;2582;48.770;9.190;2023-10-09T01:53:44;16.00;99.90
5128;DHT22;2582;48.770;9.190;2023-10-09T01:56:13;16.00;99.90
5128;DHT22;2582;48.770;9.190;2023-10-09T01:58:41;16.00;99.90
5128;DHT22;2582;48.770;9.190;2023-10-09T02:01:08;16.00;99.90
5128;DHT22;2582;48.770;9.190;2023-10-09T02:03:34;16.10;99.90
5128;DHT22;2582;48.770;9.190;2023-10-09T02:06:02;16.00;99.90
5128;DHT22;2582;48.770;9.190;2023-10-09T02:08:46;16.00;99.90
5128;DHT22;2582;48.770;9.190;2023-10-09T02:11:15;16.00;99.90
5128;DHT22;2582;48.770;9.190;2023-10-09T02:14:01;16.00;99.90
5128;DHT22;2582;48.770;9.190;2023-10-09T02:16:27;16.00;99.90
5128;DHT22;2582;48.770;9.190;2023-10-09T02:19:07;16.10;99.90
5128;DHT22;2582;48.770;9.190;2023-10-09T02:21:34;16.10;99.90
5128;DHT22;2582;48.770;9.190;2023-10-09T02:24:05;16.10;99.90
5128;DHT22;2582;48.770;9.190;2023-10-09T02:26:33;16.10;99.90
5128;DHT22;2582;48.770;9.190;2023-10-09T02:29:01;16.10;99.90
5128;DHT22;2582;48.770;9.190;2023-10-09T02:31:41;16.10;99.90
5128;DHT22;2582;48.770;9.190;2023-10-09T02:34:10;16.10;99.90
5128;DHT22;2582;48.770;9.190;2023-10-09T02:36:37;16.10;99.90
5128;DHT22;2582;48.770;9.190;2023-10-09T02:39:15;16.10;99.90
5128;DHT22;2582;48.770;9.190;2023-10-09T02:41:55;16.10;99.90
5128;DHT22;2582;48.770;9.190;2023-10-09T02:44:27;16.10;99.90
5128;DHT22;2582;48.770;9.190;2023-10-09T02:46:57;16.10;99.90
5128;DHT22;2582;48.770;9.190;2023-10-09T02:49:23;16.20;99.90
5128;DHT22;2582;48.770;9.190;2023-10-09T02:51:49;16.20;99.90
5128;DHT22;2582;48.770;9.190;2023-10-09T02:54:18;16.10;99.90
5128;DHT22;2582;48.770;9.190;2023-10-09T02:56:53;16.00;99.90
5128;DHT22;2582;48.770;9.190;2023-10-09T02:59:24;16.10;99.90
5128;DHT22;2582;48.770;9.190;2023-10-09T03:01:50;16.10;99.90
5128;DHT22;2582;48.770;9.190;2023-10-09T03:04:18;16.00;99.90
5128;DHT22;2582;48.770;9.190;2023-10-09T03:06:45;16.00;99.90
5128;DHT22;2582;48.770;9.190;2023-10-09T03:09:20;16.10;99.90
5128;DHT22;2582;48.770;9.190;2023-10-09T03:11:57;16.10;99.90
5128;DHT22;2582;48.770;9.190;2023-10-09T03:14:30;16.20;99.90
5128;DHT22;2582;48.770;9.190;2023-10-09T03:16:57;16.20;99.90
5128;DHT22;2582;48.770;9.190;2023-10-09T03:19:27;16.30;99.90
5128;DHT22;2582;48.770;9.190;2023-10-09T03:21:57;16.30;99.90
5128;DHT22;2582;48.770;9.190;2023-10-09T03:24:25;16.30;99.90
5128;DHT22;2582;48.770;9.190;2023-10-09T03:26:52;16.30;99.90
5128;DHT22;2582;48.770;9.190;2023-10-09T03:29:22;16.30;99.90
5128;DHT22;2582;48.770;9.190;2023-10-09T03:31:47;16.20;99.90
5128;DHT22;2582;48.770;9.190;2023-10-09T03:34:16;16.20;99.90
5128;DHT22;2582;48.770;9.190;2023-10-09T03:36:42;16.30;99.90
5128;DHT22;2582;48.770;9.190;2023-10-09T03:39:09;16.30;99.90
5128;DHT22;2582;48.770;9.190;2023-10-09T03:41:53;16.20;99.90
5128;DHT22;2582;48.770;9.190;2023-10-09T03:44:24;16.10;99.90
5128;DHT22;2582;48.770;9.190;2023-10-09T03:46:53;16.20;99.90
5128;DHT22;2582;48.770;9.190;2023-10-09T03:49:19;16.20;99.90
5128;DHT22;2582;48.770;9.190;2023-10-09T03:51:49;16.30;99.90
5128;DHT22;2582;48.770;9.190;2023-10-09T03:54:15;16.30;99.90
5128;DHT22;2582;48.770;9.190;2023-10-09T03:56:41;16.30;99.90
5128;DHT22;2582;48.770;9.190;2023-10-09T03:59:07;16.30;99.90
5128;DHT22;2582;48.770;9.190;2023-10-09T04:01:36;16.30;99.90
5128;DHT22;2582;48.770;9.190;2023-10-09T04:04:05;16.20;99.90
5128;DHT22;2582;48.770;9.190;2023-10-09T04:06:36;16.30;99.90
5128;DHT22;2582;48.770;9.190;2023-10-09T04:09:03;16.30;99.90
5128;DHT22;2582;48.770;9.190;2023-10-09T04:11:53;16.30;99.90
5128;DHT22;2582;48.770;9.190;2023-10-09T04:14:34;16.20;99.90
5128;DHT22;2582;48.770;9.190;2023-10-09T04:17:01;16.10;99.90
5128;DHT22;2582;48.770;9.190;2023-10-09T04:19:52;16.10;99.90
5128;DHT22;2582;48.770;9.190;2023-10-09T04:22:40;16.00;99.90
5128;DHT22;2582;48.770;9.190;2023-10-09T04:25:24;15.90;99.90
5128;DHT22;2582;48.770;9.190;2023-10-09T04:27:55;15.90;99.90
5128;DHT22;2582;48.770;9.190;2023-10-09T04:30:45;16.00;99.90
5128;DHT22;2582;48.770;9.190;2023-10-09T04:33:19;15.90;99.90
5128;DHT22;2582;48.770;9.190;2023-10-09T04:36:07;15.90;99.90
5128;DHT22;2582;48.770;9.190;2023-10-09T04:38:49;15.90;99.90
5128;DHT22;2582;48.770;9.190;2023-10-09T04:41:24;15.90;99.90
5128;DHT22;2582;48.770;9.190;2023-10-09T04:43:54;15.80;99.90
5128;DHT22;2582;48.770;9.190;2023-10-09T04:46:30;15.80;99.90
5128;DHT22;2582;48.770;9.190;2023-10-09T04:49:12;15.70;99.90
5128;DHT22;2582;48.770;9.190;2023-10-09T04:51:53;15.70;99.90
5128;DHT22;2582;48.770;9.190;2023-10-09T04:54:32;15.80;99.90
5128;DHT22;2582;48.770;9.190;2023-10-09T04:57:05;15.80;99.90
5128;DHT22;2582;48.770;9.190;2023-10-09T04:59:43;15.90;99.90
5128;DHT22;2582;48.770;9.190;2023-10-09T05:02:13;15.90;99.90
5128;DHT22;2582;48.770;9.190;2023-10-09T05:04:47;15.90;99.90
5128;DHT22;2582;48.770;9.190;2023-10-09T05:07:17;15.80;99.90
5128;DHT22;2582;48.770;9.190;2023-10-09T05:09:49;15.80;99.90
5128;DHT22;2582;48.770;9.190;2023-10-09T05:12:21;15.80;99.90
5128;DHT22;2582;48.770;9.190;2023-10-09T05:14:51;15.90;99.90
5128;DHT22;2582;48.770;9.190;2023-10-09T05:17:34;15.90;99.90
5128;DHT22;2582;48.770;9.190;2023-10-09T05:20:02;15.90;99.90
5128;DHT22;2582;48.770;9.190;2023-10-09T05:22:45;15.90;99.90
5128;DHT22;2582;48.770;9.190;2023-10-09T05:25:23;15.70;99.90
5128;DHT22;2582;48.770;9.190;2023-10-09T05:28:09;15.80;99.90
5128;DHT22;2582;48.770;9.190;2023-10-09T05:30:54;15.80;99.90
5128;DHT22;2582;48.770;9.190;2023-10-09T05:33:34;15.80;99.90
5128;DHT22;2582;48.770;9.190;2023-10-09T05:36:03;15.80;99.90
5128;DHT22;2582;48.770;9.190;2023-10-09T05:38:47;15.90;99.90
5128;DHT22;2582;48.770;9.190;2023-10-09T05:41:27;15.90;99.90
5128;DHT22;2582;48.770;9.190;2023-10-09T05:44:11;15.80;99.90
5128;DHT22;2582;48.770;9.190;2023-10-09T05:46:56;15.90;99.90
5128;DHT22;2582;48.770;9.190;2023-10-09T05:49:50;15.90;99.90
5128;DHT22;2582;48.770;9.190;2023-10-09T05:52:34;15.90;99.90
5128;DHT22;2582;48.770;9.190;2023-10-09T05:55:08;15.90;99.90
5128;DHT22;2582;48.770;9.190;2023-10-09T05:57:53;15.90;99.90
5128;DHT22;2582;48.770;9.190;2023-10-09T06:00:25;15.80;99.90
5128;DHT22;2582;48.770;9.190;2023-10-09T06:03:10;15.90;99.90
5128;DHT22;2582;48.770;9.190;2023-10-09T06:05:49;16.00;99.90
5128;DHT22;2582;48.770;9.190;2023-10-09T06:08:25;16.10;99.90
5128;DHT22;2582;48.770;9.190;2023-10-09T06:11:10;16.20;99.90
5128;DHT22;2582;48.770;9.190;2023-10-09T06:13:59;16.20;99.90
5128;DHT22;2582;48.770;9.190;2023-10-09T06:16:39;16.30;99.90
5128;DHT22;2582;48.770;9.190;2023-10-09T06:19:10;16.30;99.90
5128;DHT22;2582;48.770;9.190;2023-10-09T06:21:51;16.40;99.90
5128;DHT22;2582;48.770;9.190;2023-10-09T06:24:21;16.50;99.90
5128;DHT22;2582;48.770;9.190;2023-10-09T06:26:54;16.60;99.90
5128;DHT22;2582;48.770;9.190;2023-10-09T06:29:39;16.50;99.90
5128;DHT22;2582;48.770;9.190;2023-10-09T06:32:11;16.40;99.90
5128;DHT22;2582;48.770;9.190;2023-10-09T06:34:58;16.60;99.90
5128;DHT22;2582;48.770;9.190;2023-10-09T06:38:03;16.80;99.90
5128;DHT22;2582;48.770;9.190;2023-10-09T06:43:23;17.00;99.90
5128;DHT22;2582;48.770;9.190;2023-10-09T06:48:21;17.00;99.90
5128;DHT22;2582;48.770;9.190;2023-10-09T06:51:06;17.00;99.90
5128;DHT22;2582;48.770;9.190;2023-10-09T06:53:41;17.00;99.90
5128;DHT22;2582;48.770;9.190;2023-10-09T06:56:27;17.10;99.90
5128;DHT22;2582;48.770;9.190;2023-10-09T07:01:29;17.30;99.90
5128;DHT22;2582;48.770;9.190;2023-10-09T07:04:00;17.50;99.90
5128;DHT22;2582;48.770;9.190;2023-10-09T07:06:36;17.50;99.90
5128;DHT22;2582;48.770;9.190;2023-10-09T07:09:02;17.60;99.90
5128;DHT22;2582;48.770;9.190;2023-10-09T07:11:41;17.60;99.90
5128;DHT22;2582;48.770;9.190;2023-10-09T07:14:13;17.60;99.90
5128;DHT22;2582;48.770;9.190;2023-10-09T07:17:00;17.70;99.90
5128;DHT22;2582;48.770;9.190;2023-10-09T07:19:30;17.80;99.90
5128;DHT22;2582;48.770;9.190;2023-10-09T07:22:03;17.90;99.90
5128;DHT22;2582;48.770;9.190;2023-10-09T07:24:30;18.00;99.90
5128;DHT22;2582;48.770;9.190;2023-10-09T07:27:11;18.00;99.90
5128;DHT22;2582;48.770;9.190;2023-10-09T07:29:40;18.10;99.90
5128;DHT22;2582;48.770;9.190;2023-10-09T07:32:18;18.30;99.90
5128;DHT22;2582;48.770;9.190;2023-10-09T07:34:50;18.40;99.90
5128;DHT22;2582;48.770;9.190;2023-10-09T07:37:26;18.50;99.90
5128;DHT22;2582;48.770;9.190;2023-10-09T07:39:56;18.60;99.90
5128;DHT22;2582;48.770;9.190;2023-10-09T07:42:25;18.60;99.90
5128;DHT22;2582;48.770;9.190;2023-10-09T07:45:20;18.60;99.90
5128;DHT22;2582;48.770;9.190;2023-10-09T07:47:47;18.60;99.90
5128;DHT22;2582;48.770;9.190;2023-10-09T07:50:35;18.80;99.90
5128;DHT22;2582;48.770;9.190;2023-10-09T07:53:09;18.80;99.90
5128;DHT22;2582;48.770;9.190;2023-10-09T07:55:44;19.00;99.90
5128;DHT22;2582;48.770;9.190;2023-10-09T07:58:20;19.10;99.90
5128;DHT22;2582;48.770;9.190;2023-10-09T08:00:55;19.20;99.90
5128;DHT22;2582;48.770;9.190;2023-10-09T08:03:36;19.20;99.90
5128;DHT22;2582;48.770;9.190;2023-10-09T08:06:02;19.30;99.90
5128;DHT22;2582;48.770;9.190;2023-10-09T08:08:46;19.30;99.90
5128;DHT22;2582;48.770;9.190;2023-10-09T08:11:31;19.30;99.90
5128;DHT22;2582;48.770;9.190;2023-10-09T08:14:08;19.50;99.90
5128;DHT22;2582;48.770;9.190;2023-10-09T08:16:54;19.70;99.90
5128;DHT22;2582;48.770;9.190;2023-10-09T08:19:40;19.80;99.90
5128;DHT22;2582;48.770;9.190;2023-10-09T08:22:37;19.90;99.90
5128;DHT22;2582;48.770;9.190;2023-10-09T08:25:10;20.10;99.90
5128;DHT22;2582;48.770;9.190;2023-10-09T08:27:52;20.30;99.90
5128;DHT22;2582;48.770;9.190;2023-10-09T08:30:23;20.40;99.90
5128;DHT22;2582;48.770;9.190;2023-10-09T08:32:49;20.60;99.90
5128;DHT22;2582;48.770;9.190;2023-10-09T08:35:38;20.70;99.90
5128;DHT22;2582;48.770;9.190;2023-10-09T08:38:17;20.80;99.90
5128;DHT22;2582;48.770;9.190;2023-10-09T08:40:49;20.90;99.90
5128;DHT22;2582;48.770;9.190;2023-10-09T08:43:20;21.00;99.90
5128;DHT22;2582;48.770;9.190;2023-10-09T08:48:13;21.00;99.90
5128;DHT22;2582;48.770;9.190;2023-10-09T08:50:42;20.80;99.90
5128;DHT22;2582;48.770;9.190;2023-10-09T08:53:10;20.90;99.90
5128;DHT22;2582;48.770;9.190;2023-10-09T08:55:37;21.00;99.90
5128;DHT22;2582;48.770;9.190;2023-10-09T08:58:05;20.90;99.90
5128;DHT22;2582;48.770;9.190;2023-10-09T09:00:44;21.10;99.90
5128;DHT22;2582;48.770;9.190;2023-10-09T09:03:15;21.30;99.90
5128;DHT22;2582;48.770;9.190;2023-10-09T09:05:56;21.40;99.90
5128;DHT22;2582;48.770;9.190;2023-10-09T09:08:23;21.60;99.90
5128;DHT22;2582;48.770;9.190;2023-10-09T09:11:01;21.70;99.90
5128;DHT22;2582;48.770;9.190;2023-10-09T09:13:44;21.70;99.90
5128;DHT22;2582;48.770;9.190;2023-10-09T09:16:22;21.90;99.90
5128;DHT22;2582;48.770;9.190;2023-10-09T09:19:01;22.00;99.90
5128;DHT22;2582;48.770;9.190;2023-10-09T09:21:37;22.00;99.90
5128;DHT22;2582;48.770;9.190;2023-10-09T09:24:11;22.20;99.90
5128;DHT22;2582;48.770;9.190;2023-10-09T09:26:57;22.40;99.90
5128;DHT22;2582;48.770;9.190;2023-10-09T09:29:46;22.60;99.90
5128;DHT22;2582;48.770;9.190;2023-10-09T09:32:29;22.90;99.90
5128;DHT22;2582;48.770;9.190;2023-10-09T09:35:01;23.00;99.90
5128;DHT22;2582;48.770;9.190;2023-10-09T09:37:30;23.10;99.50
5128;DHT22;2582;48.770;9.190;2023-10-09T09:40:01;23.30;99.90
5128;DHT22;2582;48.770;9.190;2023-10-09T09:42:30;23.40;99.90
5128;DHT22;2582;48.770;9.190;2023-10-09T09:45:00;23.50;99.90
5128;DHT22;2582;48.770;9.190;2023-10-09T09:47:26;23.50;99.90
5128;DHT22;2582;48.770;9.190;2023-10-09T09:49:56;23.60;99.90
5128;DHT22;2582;48.770;9.190;2023-10-09T09:52:29;23.60;99.90
5128;DHT22;2582;48.770;9.190;2023-10-09T09:55:07;23.80;99.90
5128;DHT22;2582;48.770;9.190;2023-10-09T09:57:40;23.80;99.90
5128;DHT22;2582;48.770;9.190;2023-10-09T10:00:09;23.90;99.70
5128;DHT22;2582;48.770;9.190;2023-10-09T10:02:56;24.00;99.90
5128;DHT22;2582;48.770;9.190;2023-10-09T10:05:24;24.00;99.90
5128;DHT22;2582;48.770;9.190;2023-10-09T10:07:56;24.00;99.90
5128;DHT22;2582;48.770;9.190;2023-10-09T10:10:39;24.10;99.90
5128;DHT22;2582;48.770;9.190;2023-10-09T10:16:12;24.40;99.90
5128;DHT22;2582;48.770;9.190;2023-10-09T10:21:33;24.70;97.80
5128;DHT22;2582;48.770;9.190;2023-10-09T10:24:03;24.80;98.80
5128;DHT22;2582;48.770;9.190;2023-10-09T10:26:32;24.60;99.90
5128;DHT22;2582;48.770;9.190;2023-10-09T10:29:20;24.60;97.10
5128;DHT22;2582;48.770;9.190;2023-10-09T10:32:00;24.60;96.20
5128;DHT22;2582;48.770;9.190;2023-10-09T10:37:15;24.70;95.50
5128;DHT22;2582;48.770;9.190;2023-10-09T10:39:50;24.90;95.50
5128;DHT22;2582;48.770;9.190;2023-10-09T10:42:16;25.00;94.50
5128;DHT22;2582;48.770;9.190;2023-10-09T10:45:01;24.60;94.40
5128;DHT22;2582;48.770;9.190;2023-10-09T10:47:28;24.40;94.40
5128;DHT22;2582;48.770;9.190;2023-10-09T10:50:01;24.50;94.70
5128;DHT22;2582;48.770;9.190;2023-10-09T10:52:49;24.20;94.20
5128;DHT22;2582;48.770;9.190;2023-10-09T10:55:23;24.20;94.40
5128;DHT22;2582;48.770;9.190;2023-10-09T10:57:51;24.30;95.40
5128;DHT22;2582;48.770;9.190;2023-10-09T11:00:27;24.20;94.00
5128;DHT22;2582;48.770;9.190;2023-10-09T11:03:17;24.20;94.00
5128;DHT22;2582;48.770;9.190;2023-10-09T11:05:46;24.20;94.60
5128;DHT22;2582;48.770;9.190;2023-10-09T11:08:23;24.30;95.90
5128;DHT22;2582;48.770;9.190;2023-10-09T11:10:50;24.40;95.10
5128;DHT22;2582;48.770;9.190;2023-10-09T11:13:26;24.30;94.70
5128;DHT22;2582;48.770;9.190;2023-10-09T11:15:58;24.50;93.60
5128;DHT22;2582;48.770;9.190;2023-10-09T11:18:41;24.80;94.50
5128;DHT22;2582;48.770;9.190;2023-10-09T11:21:16;25.30;94.50
5128;DHT22;2582;48.770;9.190;2023-10-09T11:23:42;25.50;92.90
5128;DHT22;2582;48.770;9.190;2023-10-09T11:26:17;25.70;92.50
5128;DHT22;2582;48.770;9.190;2023-10-09T11:32:01;26.00;91.30
5128;DHT22;2582;48.770;9.190;2023-10-09T11:34:29;26.00;89.50
5128;DHT22;2582;48.770;9.190;2023-10-09T11:36:56;26.00;87.60
5128;DHT22;2582;48.770;9.190;2023-10-09T11:39:32;25.80;86.90
5128;DHT22;2582;48.770;9.190;2023-10-09T11:42:08;25.70;90.00
5128;DHT22;2582;48.770;9.190;2023-10-09T11:44:35;25.50;91.90
5128;DHT22;2582;48.770;9.190;2023-10-09T11:47:02;25.40;93.60
5128;DHT22;2582;48.770;9.190;2023-10-09T11:49:55;25.20;94.30
5128;DHT22;2582;48.770;9.190;2023-10-09T11:52:55;24.90;96.50
5128;DHT22;2582;48.770;9.190;2023-10-09T11:55:39;24.50;97.30
5128;DHT22;2582;48.770;9.190;2023-10-09T11:58:05;24.30;97.00
5128;DHT22;2582;48.770;9.190;2023-10-09T12:00:32;24.20;97.20
5128;DHT22;2582;48.770;9.190;2023-10-09T12:03:09;24.10;97.90
5128;DHT22;2582;48.770;9.190;2023-10-09T12:05:35;24.00;99.40
5128;DHT22;2582;48.770;9.190;2023-10-09T12:08:02;24.00;99.90
5128;DHT22;2582;48.770;9.190;2023-10-09T12:10:28;24.00;99.90
5128;DHT22;2582;48.770;9.190;2023-10-09T12:12:55;23.90;99.90
5128;DHT22;2582;48.770;9.190;2023-10-09T12:15:24;23.90;99.90
5128;DHT22;2582;48.770;9.190;2023-10-09T12:17:49;23.90;99.90
5128;DHT22;2582;48.770;9.190;2023-10-09T12:20:16;24.00;99.70
5128;DHT22;2582;48.770;9.190;2023-10-09T12:23:01;24.10;99.30
5128;DHT22;2582;48.770;9.190;2023-10-09T12:25:30;24.50;99.00
5128;DHT22;2582;48.770;9.190;2023-10-09T12:27:59;25.10;97.90
5128;DHT22;2582;48.770;9.190;2023-10-09T12:30:26;25.40;97.30
5128;DHT22;2582;48.770;9.190;2023-10-09T12:32:53;26.00;95.70
5128;DHT22;2582;48.770;9.190;2023-10-09T12:35:20;27.00;95.60
5128;DHT22;2582;48.770;9.190;2023-10-09T12:37:46;28.00;90.60
5128;DHT22;2582;48.770;9.190;2023-10-09T12:40:12;28.40;83.60
5128;DHT22;2582;48.770;9.190;2023-10-09T12:42:38;29.20;58.80
5128;DHT22;2582;48.770;9.190;2023-10-09T12:45:04;30.10;64.20
5128;DHT22;2582;48.770;9.190;2023-10-09T12:47:34;30.10;53.50
5128;DHT22;2582;48.770;9.190;2023-10-09T12:50:05;29.50;49.40
5128;DHT22;2582;48.770;9.190;2023-10-09T12:52:36;29.60;52.10
5128;DHT22;2582;48.770;9.190;2023-10-09T12:55:03;29.30;56.70
5128;DHT22;2582;48.770;9.190;2023-10-09T12:57:32;28.70;50.00
5128;DHT22;2582;48.770;9.190;2023-10-09T12:59:57;28.80;53.20
5128;DHT22;2582;48.770;9.190;2023-10-09T13:02:23;29.10;53.50
5128;DHT22;2582;48.770;9.190;2023-10-09T13:04:55;28.10;52.30
5128;DHT22;2582;48.770;9.190;2023-10-09T13:07:21;27.70;54.00
5128;DHT22;2582;48.770;9.190;2023-10-09T13:09:48;27.40;55.30
5128;DHT22;2582;48.770;9.190;2023-10-09T13:12:34;27.00;59.30
5128;DHT22;2582;48.770;9.190;2023-10-09T13:15:08;27.20;59.40
5128;DHT22;2582;48.770;9.190;2023-10-09T13:17:38;28.20;61.30
5128;DHT22;2582;48.770;9.190;2023-10-09T13:20:05;29.50;57.30
5128;DHT22;2582;48.770;9.190;2023-10-09T13:22:40;29.10;58.00
5128;DHT22;2582;48.770;9.190;2023-10-09T13:25:12;29.80;56.80
5128;DHT22;2582;48.770;9.190;2023-10-09T13:27:50;30.40;54.60
5128;DHT22;2582;48.770;9.190;2023-10-09T13:30:17;31.00;55.60
5128;DHT22;2582;48.770;9.190;2023-10-09T13:32:48;32.50;55.30
5128;DHT22;2582;48.770;9.190;2023-10-09T13:35:16;33.30;51.70
5128;DHT22;2582;48.770;9.190;2023-10-09T13:37:42;33.90;45.80
5128;DHT22;2582;48.770;9.190;2023-10-09T13:40:09;33.60;39.90
5128;DHT22;2582;48.770;9.190;2023-10-09T13:42:37;34.50;41.20
5128;DHT22;2582;48.770;9.190;2023-10-09T13:45:03;35.40;42.80
5128;DHT22;2582;48.770;9.190;2023-10-09T13:47:33;36.70;37.70
5128;DHT22;2582;48.770;9.190;2023-10-09T13:49:58;36.20;35.90
5128;DHT22;2582;48.770;9.190;2023-10-09T13:52:25;36.50;30.50
5128;DHT22;2582;48.770;9.190;2023-10-09T13:54:51;37.30;33.00
5128;DHT22;2582;48.770;9.190;2023-10-09T13:57:18;37.60;32.10
5128;DHT22;2582;48.770;9.190;2023-10-09T13:59:47;37.40;30.00
5128;DHT22;2582;48.770;9.190;2023-10-09T14:02:16;38.10;28.90
5128;DHT22;2582;48.770;9.190;2023-10-09T14:04:43;38.20;28.00
5128;DHT22;2582;48.770;9.190;2023-10-09T14:07:09;36.00;27.60
5128;DHT22;2582;48.770;9.190;2023-10-09T14:09:35;33.90;30.00
5128;DHT22;2582;48.770;9.190;2023-10-09T14:12:05;33.40;31.50
5128;DHT22;2582;48.770;9.190;2023-10-09T14:14:43;32.90;30.90
5128;DHT22;2582;48.770;9.190;2023-10-09T14:17:20;31.80;33.00
5128;DHT22;2582;48.770;9.190;2023-10-09T14:19:50;30.60;36.20
5128;DHT22;2582;48.770;9.190;2023-10-09T14:22:24;30.20;35.70
5128;DHT22;2582;48.770;9.190;2023-10-09T14:24:50;29.40;34.90
5128;DHT22;2582;48.770;9.190;2023-10-09T14:27:26;29.00;38.00
5128;DHT22;2582;48.770;9.190;2023-10-09T14:29:55;28.50;35.30
5128;DHT22;2582;48.770;9.190;2023-10-09T14:32:22;28.30;36.90
5128;DHT22;2582;48.770;9.190;2023-10-09T14:34:55;27.90;36.40
5128;DHT22;2582;48.770;9.190;2023-10-09T14:37:26;27.90;38.00
5128;DHT22;2582;48.770;9.190;2023-10-09T14:39:52;27.90;40.00
5128;DHT22;2582;48.770;9.190;2023-10-09T14:42:18;27.80;41.90
5128;DHT22;2582;48.770;9.190;2023-10-09T14:44:45;27.50;40.90
5128;DHT22;2582;48.770;9.190;2023-10-09T14:47:12;27.30;44.00
5128;DHT22;2582;48.770;9.190;2023-10-09T14:49:39;27.40;46.40
5128;DHT22;2582;48.770;9.190;2023-10-09T14:52:12;27.40;46.60
5128;DHT22;2582;48.770;9.190;2023-10-09T14:54:42;27.30;46.30
5128;DHT22;2582;48.770;9.190;2023-10-09T14:57:08;27.20;50.40
5128;DHT22;2582;48.770;9.190;2023-10-09T14:59:33;26.60;51.70
5128;DHT22;2582;48.770;9.190;2023-10-09T15:01:59;26.50;52.80
5128;DHT22;2582;48.770;9.190;2023-10-09T15:04:25;26.30;56.00
5128;DHT22;2582;48.770;9.190;2023-10-09T15:06:52;26.20;55.40
5128;DHT22;2582;48.770;9.190;2023-10-09T15:09:17;26.10;57.10
5128;DHT22;2582;48.770;9.190;2023-10-09T15:11:54;26.00;57.50
5128;DHT22;2582;48.770;9.190;2023-10-09T15:14:20;25.70;55.30
5128;DHT22;2582;48.770;9.190;2023-10-09T15:16:47;25.70;55.80
5128;DHT22;2582;48.770;9.190;2023-10-09T15:19:13;25.50;57.30
5128;DHT22;2582;48.770;9.190;2023-10-09T15:21:39;25.20;59.70
5128;DHT22;2582;48.770;9.190;2023-10-09T15:24:12;25.00;60.20
5128;DHT22;2582;48.770;9.190;2023-10-09T15:26:42;25.00;60.50
5128;DHT22;2582;48.770;9.190;2023-10-09T15:29:08;24.80;60.70
5128;DHT22;2582;48.770;9.190;2023-10-09T15:31:35;24.50;63.00
5128;DHT22;2582;48.770;9.190;2023-10-09T15:34:01;24.30;62.80
5128;DHT22;2582;48.770;9.190;2023-10-09T15:36:27;24.20;64.40
5128;DHT22;2582;48.770;9.190;2023-10-09T15:38:56;24.00;64.60
5128;DHT22;2582;48.770;9.190;2023-10-09T15:41:27;23.90;65.20
5128;DHT22;2582;48.770;9.190;2023-10-09T15:43:56;23.90;65.40
5128;DHT22;2582;48.770;9.190;2023-10-09T15:46:22;23.80;66.60
5128;DHT22;2582;48.770;9.190;2023-10-09T15:48:49;23.60;67.90
5128;DHT22;2582;48.770;9.190;2023-10-09T15:51:16;23.50;68.20
5128;DHT22;2582;48.770;9.190;2023-10-09T15:53:43;23.20;69.20
5128;DHT22;2582;48.770;9.190;2023-10-09T15:56:13;23.20;69.70
5128;DHT22;2582;48.770;9.190;2023-10-09T15:58:45;23.10;69.90
5128;DHT22;2582;48.770;9.190;2023-10-09T16:01:12;23.10;71.20
5128;DHT22;2582;48.770;9.190;2023-10-09T16:03:48;22.90;71.70
5128;DHT22;2582;48.770;9.190;2023-10-09T16:06:14;22.70;73.00
5128;DHT22;2582;48.770;9.190;2023-10-09T16:08:46;22.60;73.40
5128;DHT22;2582;48.770;9.190;2023-10-09T16:11:16;22.60;74.20
5128;DHT22;2582;48.770;9.190;2023-10-09T16:13:42;22.50;74.70
5128;DHT22;2582;48.770;9.190;2023-10-09T16:16:07;22.40;75.00
5128;DHT22;2582;48.770;9.190;2023-10-09T16:18:35;22.40;74.30
5128;DHT22;2582;48.770;9.190;2023-10-09T16:21:01;22.40;73.60
5128;DHT22;2582;48.770;9.190;2023-10-09T16:23:33;22.30;74.20
5128;DHT22;2582;48.770;9.190;2023-10-09T16:25:59;22.30;75.20
5128;DHT22;2582;48.770;9.190;2023-10-09T16:28:29;22.10;75.70
5128;DHT22;2582;48.770;9.190;2023-10-09T16:30:56;21.90;76.20
5128;DHT22;2582;48.770;9.190;2023-10-09T16:33:23;21.80;76.40
5128;DHT22;2582;48.770;9.190;2023-10-09T16:35:49;21.70;76.50
5128;DHT22;2582;48.770;9.190;2023-10-09T16:38:16;21.70;76.80
5128;DHT22;2582;48.770;9.190;2023-10-09T16:40:42;21.60;77.30
5128;DHT22;2582;48.770;9.190;2023-10-09T16:43:17;21.50;77.60
5128;DHT22;2582;48.770;9.190;2023-10-09T16:45:42;21.40;78.00
5128;DHT22;2582;48.770;9.190;2023-10-09T16:48:09;21.30;78.90
5128;DHT22;2582;48.770;9.190;2023-10-09T16:50:35;21.10;79.30
5128;DHT22;2582;48.770;9.190;2023-10-09T16:53:01;21.10;80.30
5128;DHT22;2582;48.770;9.190;2023-10-09T16:55:29;20.90;80.60
5128;DHT22;2582;48.770;9.190;2023-10-09T16:57:55;21.00;81.10
5128;DHT22;2582;48.770;9.190;2023-10-09T17:00:22;20.90;81.20
5128;DHT22;2582;48.770;9.190;2023-10-09T17:02:59;20.90;81.70